Time;durP1;ratioP1;P1;durP2;ratioP2;P2;SDS_P1;SDS_P2;PMS_P1;PMS_P2;Temp;Humidity;BMP_temperature;BMP_pressure;BME280_temperature;BME280_humidity;BME280_pressure;Samples;Min_cycle;Max_cycle;Signal;HPM_P1;HPM_P2
2023/10/16 00:02:22;;;;;;;4.78;2.10;;;;;;;6.04;nan;102555.34;5012936;28;20350;-75
2023/10/16 00:04:48;;;;;;;7.93;2.60;;;;;;;6.05;nan;102561.50;5030246;28;20457;-74
2023/10/16 00:07:15;;;;;;;4.70;1.98;;;;;;;6.05;nan;102566.78;5030319;28;20061;-75
2023/10/16 00:09:41;;;;;;;7.68;2.67;;;;;;;6.05;nan;102567.63;5030085;28;20030;-74
2023/10/16 00:12:07;;;;;;;6.35;2.42;;;;;;;6.02;nan;102564.25;5030772;28;20098;-76
2023/10/16 00:14:35;;;;;;;9.38;2.72;;;;;;;5.95;nan;102561.84;5032719;28;20383;-82
2023/10/16 00:17:03;;;;;;;6.35;2.78;;;;;;;5.89;nan;102556.84;5033107;28;20454;-81
2023/10/16 00:19:33;;;;;;;5.90;2.40;;;;;;;5.85;nan;102560.53;5033364;28;20041;-81
2023/10/16 00:21:59;;;;;;;5.10;2.53;;;;;;;5.81;nan;102558.97;5033312;28;20064;-81
2023/10/16 00:24:24;;;;;;;9.15;2.63;;;;;;;5.78;nan;102561.75;5034054;28;20060;-81
2023/10/16 00:26:49;;;;;;;7.60;2.53;;;;;;;5.77;nan;102565.31;5033443;28;20033;-82
2023/10/16 00:29:31;;;;;;;6.90;2.58;;;;;;;5.73;nan;102554.03;5033321;28;20037;-81
2023/10/16 00:31:58;;;;;;;9.88;3.15;;;;;;;5.62;nan;102557.09;5015972;28;20366;-82
2023/10/16 00:34:24;;;;;;;8.30;2.85;;;;;;;5.50;nan;102547.06;5033027;28;20037;-81
2023/10/16 00:36:53;;;;;;;6.75;2.15;;;;;;;5.35;nan;102547.72;5037174;28;20041;-81
2023/10/16 00:39:20;;;;;;;6.30;2.63;;;;;;;5.27;nan;102550.66;5036539;28;20048;-81
2023/10/16 00:41:50;;;;;;;4.28;2.13;;;;;;;5.19;nan;102550.09;5036593;28;20030;-81
2023/10/16 00:44:18;;;;;;;7.53;2.30;;;;;;;5.11;nan;102550.41;5036344;28;20034;-81
2023/10/16 00:46:48;;;;;;;6.50;2.20;;;;;;;5.02;nan;102546.38;5036468;28;20037;-81
2023/10/16 00:49:18;;;;;;;10.73;2.97;;;;;;;4.97;nan;102544.81;5036287;28;20079;-81
2023/10/16 00:51:48;;;;;;;6.82;2.50;;;;;;;4.92;nan;102543.22;5036511;28;20534;-81
2023/10/16 00:54:27;;;;;;;9.05;2.85;;;;;;;4.93;nan;102538.81;5035975;28;20064;-82
2023/10/16 00:56:53;;;;;;;7.22;2.85;;;;;;;4.95;nan;102532.53;5036606;28;20030;-81
2023/10/16 00:59:23;;;;;;;8.55;3.05;;;;;;;4.94;nan;102536.13;5018561;28;20052;-81
2023/10/16 01:01:51;;;;;;;4.60;2.45;;;;;;;4.92;nan;102534.47;5036146;28;20030;-81
2023/10/16 01:04:19;;;;;;;5.20;2.58;;;;;;;4.90;nan;102538.94;5036888;28;20038;-81
2023/10/16 01:06:45;;;;;;;8.50;2.67;;;;;;;4.92;nan;102537.09;5036004;28;20068;-81
2023/10/16 01:09:24;;;;;;;6.43;2.30;;;;;;;4.91;nan;102543.28;5035889;28;20425;-81
2023/10/16 01:11:50;;;;;;;7.63;2.22;;;;;;;4.92;nan;102537.09;5036585;28;20183;-81
2023/10/16 01:14:17;;;;;;;7.28;2.50;;;;;;;4.91;nan;102533.59;5018182;28;20041;-82
2023/10/16 01:16:43;;;;;;;5.88;2.50;;;;;;;4.91;nan;102538.88;5035830;28;20038;-81
2023/10/16 01:19:09;;;;;;;6.30;2.95;;;;;;;4.91;nan;102530.09;5018256;28;20113;-81
2023/10/16 01:21:35;;;;;;;5.35;2.50;;;;;;;4.87;nan;102536.44;5017597;28;20034;-81
2023/10/16 01:24:03;;;;;;;7.88;2.53;;;;;;;4.86;nan;102527.63;5017938;28;20516;-82
2023/10/16 01:26:31;;;;;;;8.95;3.10;;;;;;;4.89;nan;102524.88;5035273;28;20082;-81
2023/10/16 01:28:57;;;;;;;8.88;2.80;;;;;;;4.89;nan;102524.03;5035500;28;20065;-81
2023/10/16 01:31:23;;;;;;;7.50;2.60;;;;;;;4.86;nan;102522.38;5035426;28;20431;-81
2023/10/16 01:33:51;;;;;;;5.43;2.58;;;;;;;4.83;nan;102519.84;5035488;28;20474;-81
2023/10/16 01:36:16;;;;;;;10.52;2.72;;;;;;;4.82;nan;102514.63;5036074;28;20124;-82
2023/10/16 01:38:42;;;;;;;6.88;2.97;;;;;;;4.80;nan;102517.34;5034883;28;20477;-81
2023/10/16 01:41:15;;;;;;;7.38;3.25;;;;;;;4.80;nan;102509.41;5035244;28;20061;-82
2023/10/16 01:43:43;;;;;;;6.40;3.25;;;;;;;4.80;nan;102508.56;5035325;28;20520;-82
2023/10/16 01:46:11;;;;;;;7.40;2.80;;;;;;;4.80;nan;102514.69;5035237;28;20064;-82
2023/10/16 01:48:44;;;;;;;6.05;2.88;;;;;;;4.76;nan;102511.34;5035450;28;20064;-81
2023/10/16 01:51:11;;;;;;;13.02;2.90;;;;;;;4.72;nan;102515.00;5034794;28;20402;-82
2023/10/16 01:53:39;;;;;;;7.60;3.10;;;;;;;4.70;nan;102505.44;5035145;28;20033;-83
2023/10/16 01:56:12;;;;;;;6.93;2.95;;;;;;;4.69;nan;102507.22;5017544;28;20078;-82
2023/10/16 01:58:38;;;;;;;12.60;3.63;;;;;;;4.67;nan;102509.06;5035255;28;20042;-81
2023/10/16 02:01:04;;;;;;;8.00;2.50;;;;;;;4.65;nan;102507.41;5034917;28;20474;-81
2023/10/16 02:03:29;;;;;;;4.22;2.35;;;;;;;4.61;nan;102506.63;5035198;28;20088;-81
2023/10/16 02:05:55;;;;;;;3.22;2.35;;;;;;;4.58;nan;102505.00;5035413;28;20029;-82
2023/10/16 02:08:21;;;;;;;7.55;2.75;;;;;;;4.57;nan;102510.34;5016971;28;20034;-82
2023/10/16 02:10:48;;;;;;;9.80;3.00;;;;;;;4.56;nan;102509.47;5034649;28;20136;-82
2023/10/16 02:13:14;;;;;;;8.57;2.95;;;;;;;4.55;nan;102507.75;5034653;28;20041;-81
2023/10/16 02:15:39;;;;;;;10.40;2.65;;;;;;;4.63;nan;102502.19;5035361;28;20033;-81
2023/10/16 02:18:27;;;;;;;8.23;2.67;;;;;;;4.71;nan;102510.63;5034715;28;20026;-81
2023/10/16 02:20:53;;;;;;;4.97;2.80;;;;;;;4.74;nan;102510.50;5034588;28;20037;-81
2023/10/16 02:23:18;;;;;;;8.52;3.00;;;;;;;4.75;nan;102500.84;5034459;28;20091;-82
2023/10/16 02:25:45;;;;;;;5.95;2.60;;;;;;;4.77;nan;102505.13;5016760;28;20393;-82
2023/10/16 02:28:17;;;;;;;7.03;2.65;;;;;;;4.76;nan;102503.44;5034418;28;20121;-83
2023/10/16 02:30:42;;;;;;;6.50;2.75;;;;;;;4.75;nan;102500.84;5034621;28;20116;-82
2023/10/16 02:33:18;;;;;;;4.82;2.65;;;;;;;4.75;nan;102491.16;5034198;28;20518;-83
2023/10/16 02:35:48;;;;;;;3.85;2.47;;;;;;;4.80;nan;102501.50;5034385;28;20125;-80
2023/10/16 02:38:14;;;;;;;7.15;2.75;;;;;;;4.85;nan;102499.56;5034280;28;20038;-82
2023/10/16 02:40:44;;;;;;;4.45;2.50;;;;;;;4.92;nan;102494.88;5034551;28;20055;-80
2023/10/16 02:43:13;;;;;;;11.17;2.60;;;;;;;5.02;nan;102498.88;5016725;28;20067;-81
2023/10/16 02:45:42;;;;;;;14.82;3.13;;;;;;;5.07;nan;102493.41;5034069;28;20466;-81
2023/10/16 02:48:09;;;;;;;3.88;2.08;;;;;;;5.08;nan;102480.16;5034077;28;20132;-81
2023/10/16 02:50:35;;;;;;;6.47;2.72;;;;;;;5.06;nan;102479.38;5000442;28;20033;-82
2023/10/16 02:53:01;;;;;;;10.60;2.83;;;;;;;5.05;nan;102474.16;5016398;28;20033;-81
2023/10/16 02:55:27;;;;;;;7.55;2.45;;;;;;;5.01;nan;102472.56;5033881;28;20033;-81
2023/10/16 02:57:52;;;;;;;4.57;2.33;;;;;;;4.99;nan;102475.25;5033211;28;20430;-81
2023/10/16 03:00:25;;;;;;;5.00;2.40;;;;;;;4.93;nan;102471.09;5034305;28;20121;-81
2023/10/16 03:02:51;;;;;;;4.57;2.00;;;;;;;4.91;nan;102475.56;5017895;28;20351;-82
2023/10/16 03:05:25;;;;;;;10.13;2.10;;;;;;;4.85;nan;102467.03;5016755;28;20048;-81
2023/10/16 03:07:52;;;;;;;8.02;2.40;;;;;;;4.81;nan;102471.59;5034477;28;20048;-81
2023/10/16 03:10:20;;;;;;;9.52;3.65;;;;;;;4.81;nan;102476.88;5033852;28;20409;-81
2023/10/16 03:12:49;;;;;;;6.30;2.45;;;;;;;4.82;nan;102469.81;5034119;28;20033;-81
2023/10/16 03:15:17;;;;;;;9.88;3.55;;;;;;;4.88;nan;102461.63;5033560;28;20037;-82
2023/10/16 03:17:42;;;;;;;5.45;2.65;;;;;;;4.95;nan;102477.16;5016264;28;20037;-82
2023/10/16 03:20:19;;;;;;;6.18;3.00;;;;;;;5.05;nan;102477.66;5033492;28;20042;-82
2023/10/16 03:22:46;;;;;;;17.13;8.07;;;;;;;5.19;nan;102486.78;5033705;28;20038;-80
2023/10/16 03:25:24;;;;;;;11.77;4.70;;;;;;;5.29;nan;102474.91;5033480;28;20112;-81
2023/10/16 03:27:50;;;;;;;10.77;3.92;;;;;;;5.41;nan;102486.72;5033799;28;20029;-81
2023/10/16 03:30:17;;;;;;;7.57;3.35;;;;;;;5.49;nan;102479.31;4999181;28;20461;-81
2023/10/16 03:32:42;;;;;;;10.13;4.00;;;;;;;5.55;nan;102476.41;5015680;28;20060;-80
2023/10/16 03:35:14;;;;;;;10.27;3.30;;;;;;;5.62;nan;102467.31;5015765;28;20037;-80
2023/10/16 03:37:40;;;;;;;6.65;2.80;;;;;;;5.64;nan;102461.97;5033563;28;20454;-81
2023/10/16 03:40:12;;;;;;;5.95;3.25;;;;;;;5.67;nan;102460.97;5015337;28;20116;-81
2023/10/16 03:42:40;;;;;;;6.60;2.97;;;;;;;5.63;nan;102462.91;5033474;28;20025;-81
2023/10/16 03:45:06;;;;;;;7.90;2.90;;;;;;;5.59;nan;102459.53;5033130;28;20362;-80
2023/10/16 03:47:33;;;;;;;4.30;2.53;;;;;;;5.50;nan;102467.84;5033373;28;20029;-83
2023/10/16 03:49:59;;;;;;;9.75;3.08;;;;;;;5.44;nan;102473.41;5033192;28;20025;-81
2023/10/16 03:52:26;;;;;;;6.72;2.80;;;;;;;5.42;nan;102475.22;5033168;28;20033;-83
2023/10/16 03:54:53;;;;;;;9.80;3.20;;;;;;;5.42;nan;102470.81;5033726;28;20038;-81
2023/10/16 03:57:20;;;;;;;7.07;2.50;;;;;;;5.47;nan;102467.97;5033212;28;20052;-82
2023/10/16 03:59:47;;;;;;;6.05;2.97;;;;;;;5.53;nan;102470.34;5033082;28;20433;-82
2023/10/16 04:02:19;;;;;;;7.85;3.55;;;;;;;5.59;nan;102463.97;5033126;28;20030;-81
2023/10/16 04:04:46;;;;;;;7.07;3.30;;;;;;;5.58;nan;102459.59;5033039;28;20037;-81
2023/10/16 04:07:14;;;;;;;5.95;2.95;;;;;;;5.51;nan;102463.41;5033153;28;20033;-81
2023/10/16 04:09:49;;;;;;;8.85;3.35;;;;;;;5.41;nan;102463.81;5015132;28;20032;-81
2023/10/16 04:12:26;;;;;;;7.13;3.63;;;;;;;5.33;nan;102457.16;5037206;28;20375;-81
2023/10/16 04:15:04;;;;;;;9.88;3.60;;;;;;;5.26;nan;102452.13;5037778;28;20046;-81
2023/10/16 04:17:34;;;;;;;9.00;3.10;;;;;;;5.21;nan;102463.78;5037403;28;20033;-82
2023/10/16 04:20:18;;;;;;;11.70;4.13;;;;;;;5.19;nan;102460.38;5020046;28;20116;-81
2023/10/16 04:22:49;;;;;;;4.45;3.40;;;;;;;5.23;nan;102454.06;5036615;28;20265;-81
2023/10/16 04:25:18;;;;;;;6.45;3.60;;;;;;;5.28;nan;102457.34;5037493;28;20052;-81
2023/10/16 04:27:44;;;;;;;7.40;4.35;;;;;;;5.39;nan;102463.03;5019141;28;20474;-80
2023/10/16 04:33:13;;;;;;;12.48;4.65;;;;;;;5.61;nan;102443.59;5036902;28;20045;-80
2023/10/16 04:46:20;;;;;;;9.73;3.78;;;;;;;5.94;nan;102456.22;5022191;28;20099;-79
2023/10/16 04:48:54;;;;;;;14.68;4.18;;;;;;;5.97;nan;102464.06;5036298;28;20038;-80
2023/10/16 04:51:22;;;;;;;6.53;3.88;;;;;;;6.00;nan;102459.50;5036611;28;20108;-79
2023/10/16 04:59:37;;;;;;;7.30;3.90;;;;;;;6.14;nan;102448.28;5036553;28;20091;-80
2023/10/16 05:02:19;;;;;;;12.55;4.13;;;;;;;6.20;nan;102441.03;5021318;28;20040;-80
2023/10/16 05:05:29;;;;;;;14.15;3.88;;;;;;;6.26;nan;102441.59;5036630;28;20488;-81
2023/10/16 05:07:53;;;;;;;10.23;4.45;;;;;;;6.27;nan;102437.13;5035563;28;20045;-78
2023/10/16 05:18:43;;;;;;;13.55;4.25;;;;;;;6.31;nan;102423.72;5056797;28;20044;-80
2023/10/16 06:16:16;;;;;;;10.63;3.75;;;;;;;6.37;nan;102422.56;5035045;28;20045;-82
2023/10/16 06:18:41;;;;;;;5.25;3.13;;;;;;;6.43;nan;102426.72;5035177;28;20086;-83
2023/10/16 06:21:07;;;;;;;13.13;3.22;;;;;;;6.50;nan;102430.78;5017763;28;20508;-83
2023/10/16 06:23:33;;;;;;;12.90;3.85;;;;;;;6.55;nan;102428.75;5017461;28;20036;-83
2023/10/16 06:26:02;;;;;;;10.55;3.33;;;;;;;6.61;nan;102425.81;5034633;28;20390;-82
2023/10/16 06:28:27;;;;;;;9.15;3.45;;;;;;;6.64;nan;102425.69;5035548;28;20030;-82
2023/10/16 06:30:53;;;;;;;6.00;3.35;;;;;;;6.69;nan;102428.94;5000842;28;20043;-82
2023/10/16 06:33:18;;;;;;;9.05;3.63;;;;;;;6.73;nan;102428.81;5016298;28;20030;-82
2023/10/16 06:35:44;;;;;;;16.20;3.70;;;;;;;6.75;nan;102441.03;5034408;28;20124;-82
2023/10/16 06:38:11;;;;;;;11.98;3.83;;;;;;;6.78;nan;102446.16;5034245;28;20033;-82
2023/10/16 06:40:40;;;;;;;6.63;3.50;;;;;;;6.82;nan;102439.81;5034086;28;20442;-82
2023/10/16 06:43:15;;;;;;;7.05;3.25;;;;;;;6.86;nan;102449.28;5034185;28;20029;-82
2023/10/16 06:45:42;;;;;;;11.73;3.60;;;;;;;6.89;nan;102453.56;5034844;28;20029;-81
2023/10/16 06:48:15;;;;;;;12.57;3.50;;;;;;;6.93;nan;102456.94;5033802;28;20449;-83
2023/10/16 06:50:53;;;;;;;10.45;3.17;;;;;;;6.94;nan;102454.22;5034721;28;20033;-82
2023/10/16 06:53:23;;;;;;;6.30;3.05;;;;;;;6.95;nan;102452.41;5034374;28;20355;-82
2023/10/16 06:55:52;;;;;;;7.70;3.70;;;;;;;6.97;nan;102461.13;5033638;28;20128;-81
2023/10/16 06:58:20;;;;;;;6.95;3.10;;;;;;;7.03;nan;102466.13;5033821;28;20378;-81
2023/10/16 07:00:47;;;;;;;6.43;3.17;;;;;;;7.07;nan;102465.88;5039115;28;20065;-81
2023/10/16 07:03:13;;;;;;;8.82;3.50;;;;;;;7.10;nan;102459.59;5037614;28;20093;-81
2023/10/16 07:05:42;;;;;;;9.23;3.78;;;;;;;7.16;nan;102463.72;5034579;28;20415;-81
2023/10/16 07:08:10;;;;;;;7.60;3.70;;;;;;;7.20;nan;102452.06;5033672;28;20132;-81
2023/10/16 07:10:41;;;;;;;6.75;3.47;;;;;;;7.26;nan;102457.03;5033624;28;20049;-81
2023/10/16 07:13:10;;;;;;;12.77;3.67;;;;;;;7.31;nan;102457.63;5033678;28;20564;-83
2023/10/16 07:15:35;;;;;;;8.93;4.05;;;;;;;7.37;nan;102454.69;5016982;28;20444;-81
2023/10/16 07:18:04;;;;;;;10.98;3.53;;;;;;;7.42;nan;102457.13;5033745;28;20410;-80
2023/10/16 07:20:31;;;;;;;11.88;3.75;;;;;;;7.46;nan;102461.28;5033699;28;20091;-80
2023/10/16 07:22:59;;;;;;;10.88;3.47;;;;;;;7.47;nan;102457.72;5016036;28;20413;-81
2023/10/16 07:28:12;;;;;;;6.88;3.83;;;;;;;7.54;nan;102464.41;5034103;28;20068;-81
2023/10/16 07:30:42;;;;;;;13.20;3.90;;;;;;;7.56;nan;102462.53;5033303;28;20462;-81
2023/10/16 07:33:17;;;;;;;10.83;3.90;;;;;;;7.58;nan;102457.16;5033926;28;20474;-81
2023/10/16 07:35:47;;;;;;;4.18;3.42;;;;;;;7.64;nan;102464.78;5034292;28;20087;-81
2023/10/16 07:38:19;;;;;;;11.38;3.83;;;;;;;7.68;nan;102469.00;5034839;28;20029;-81
2023/10/16 07:40:56;;;;;;;8.77;3.35;;;;;;;7.73;nan;102472.28;5037206;28;20503;-81
2023/10/16 07:43:29;;;;;;;6.65;3.28;;;;;;;7.77;nan;102473.78;5020693;28;20096;-81
2023/10/16 07:48:37;;;;;;;10.13;3.83;;;;;;;7.85;nan;102472.53;5038237;28;20048;-81
2023/10/16 07:51:06;;;;;;;11.27;4.07;;;;;;;7.92;nan;102476.59;5037674;28;20103;-81
2023/10/16 07:53:34;;;;;;;11.38;3.70;;;;;;;8.04;nan;102483.03;5037867;28;20533;-81
2023/10/16 07:56:01;;;;;;;9.60;3.50;;;;;;;8.11;nan;102479.97;5035978;28;20032;-80
2023/10/16 07:58:33;;;;;;;14.27;3.50;;;;;;;8.19;nan;102476.88;5033867;28;20036;-82
2023/10/16 08:01:17;;;;;;;12.07;3.50;;;;;;;8.26;nan;102483.56;5034314;28;20037;-82
2023/10/16 08:03:46;;;;;;;10.35;3.97;;;;;;;8.31;nan;102478.00;5018141;28;20033;-82
2023/10/16 08:06:17;;;;;;;9.43;3.28;;;;;;;8.34;nan;102472.53;5032684;28;20052;-82
2023/10/16 08:08:49;;;;;;;8.37;2.87;;;;;;;8.40;nan;102485.47;5033175;28;20103;-82
2023/10/16 08:11:20;;;;;;;7.95;3.28;;;;;;;8.45;nan;102478.16;5032558;28;20152;-81
2023/10/16 08:13:52;;;;;;;9.32;3.45;;;;;;;8.52;nan;102481.31;5032772;28;20179;-82
2023/10/16 08:16:21;;;;;;;15.43;3.70;;;;;;;8.63;nan;102481.56;5014690;28;20437;-82
2023/10/16 08:18:52;;;;;;;8.38;4.10;;;;;;;8.78;nan;102484.31;5032734;28;20029;-82
2023/10/16 08:21:25;;;;;;;8.23;3.97;;;;;;;8.89;nan;102478.38;5033294;28;20470;-81
2023/10/16 08:23:55;;;;;;;8.52;3.72;;;;;;;9.00;nan;102473.28;5033300;28;20033;-82
2023/10/16 08:26:30;;;;;;;7.18;3.70;;;;;;;9.13;nan;102476.09;5032943;28;20470;-81
2023/10/16 08:29:12;;;;;;;5.97;3.60;;;;;;;9.21;nan;102473.00;5032852;28;20021;-82
2023/10/16 08:31:52;;;;;;;11.38;3.50;;;;;;;9.28;nan;102461.06;5032646;28;20159;-82
2023/10/16 08:34:20;;;;;;;8.93;3.80;;;;;;;9.34;nan;102463.34;5033051;28;20363;-82
2023/10/16 08:36:51;;;;;;;6.72;3.22;;;;;;;9.38;nan;102464.03;5032731;28;20061;-81
2023/10/16 08:39:19;;;;;;;11.93;2.97;;;;;;;9.40;nan;102462.13;5034805;28;20493;-81
2023/10/16 08:42:01;;;;;;;8.13;3.50;;;;;;;9.45;nan;102463.56;5037792;28;20041;-81
2023/10/16 08:44:28;;;;;;;9.90;3.15;;;;;;;9.53;nan;102460.47;5037604;28;20135;-81
2023/10/16 08:49:23;;;;;;;6.82;3.20;;;;;;;9.64;nan;102465.13;5037869;28;20043;-80
2023/10/16 08:51:52;;;;;;;5.40;2.72;;;;;;;9.68;nan;102461.31;5035764;28;20038;-81
2023/10/16 08:55:23;;;;;;;9.32;2.33;;;;;;;9.76;nan;102466.16;5036953;28;20037;-83
2023/10/16 08:57:16;;;;;;;9.50;2.60;;;;;;;9.82;nan;102469.31;5027289;28;20391;-82
2023/10/16 08:59:43;;;;;;;7.78;2.10;;;;;;;9.92;nan;102474.06;5037556;28;20029;-82
2023/10/16 09:02:13;;;;;;;7.03;2.22;;;;;;;9.98;nan;102476.34;5038272;28;20076;-82
2023/10/16 09:04:41;;;;;;;9.68;2.20;;;;;;;10.21;nan;102477.53;5036848;28;20040;-82
2023/10/16 09:07:12;;;;;;;8.77;2.30;;;;;;;10.44;nan;102481.47;5036529;28;20030;-82
2023/10/16 09:09:41;;;;;;;6.22;1.95;;;;;;;10.58;nan;102478.78;5036739;28;20061;-81
2023/10/16 09:12:10;;;;;;;4.07;1.73;;;;;;;10.54;nan;102477.25;5019375;28;20346;-82
2023/10/16 09:14:40;;;;;;;4.82;1.83;;;;;;;10.59;nan;102472.47;5036274;28;20105;-81
2023/10/16 09:17:06;;;;;;;4.63;2.08;;;;;;;10.53;nan;102475.53;5036141;28;20192;-83
2023/10/16 09:19:45;;;;;;;7.10;1.92;;;;;;;10.56;nan;102482.47;5036677;28;20087;-82
2023/10/16 09:22:13;;;;;;;10.00;1.90;;;;;;;10.60;nan;102470.69;5036166;28;20048;-82
2023/10/16 09:24:44;;;;;;;7.35;1.75;;;;;;;10.64;nan;102468.66;5036402;28;20090;-82
2023/10/16 09:27:17;;;;;;;7.30;1.85;;;;;;;10.56;nan;102472.69;5036586;28;20040;-82
2023/10/16 09:29:55;;;;;;;5.93;1.80;;;;;;;10.50;nan;102470.41;5036223;28;20040;-82
2023/10/16 09:32:34;;;;;;;3.92;1.92;;;;;;;10.46;nan;102460.91;5018796;28;20032;-82
2023/10/16 09:35:05;;;;;;;5.05;1.60;;;;;;;10.56;nan;102462.03;5036029;28;20140;-82
2023/10/16 09:37:37;;;;;;;5.60;1.70;;;;;;;10.59;nan;102458.31;5035711;28;20037;-82
2023/10/16 09:40:35;;;;;;;3.72;1.83;;;;;;;10.69;nan;102455.91;5035591;28;20466;-81
2023/10/16 09:43:12;;;;;;;6.65;1.58;;;;;;;10.84;nan;102460.22;5036268;28;20075;-81
2023/10/16 09:45:38;;;;;;;7.55;1.73;;;;;;;10.99;nan;102465.47;5036382;28;20037;-81
2023/10/16 09:48:09;;;;;;;5.35;1.63;;;;;;;11.07;nan;102452.53;5018821;28;20143;-81
2023/10/16 09:50:38;;;;;;;7.03;1.70;;;;;;;11.15;nan;102455.53;5018533;28;20037;-81
2023/10/16 09:53:06;;;;;;;2.38;1.30;;;;;;;11.26;nan;102445.00;5035427;28;20052;-81
2023/10/16 09:55:44;;;;;;;3.25;1.55;;;;;;;11.53;nan;102444.06;5035134;28;20060;-81
2023/10/16 09:58:11;;;;;;;2.83;1.25;;;;;;;11.76;nan;102445.13;5035659;28;20514;-81
2023/10/16 10:00:40;;;;;;;2.28;1.23;;;;;;;11.93;nan;102435.13;5035249;28;20037;-80
2023/10/16 10:03:07;;;;;;;6.43;1.65;;;;;;;12.22;nan;102440.19;5035586;28;20390;-81
2023/10/16 10:05:48;;;;;;;3.22;1.20;;;;;;;12.35;nan;102443.66;5034673;28;20458;-81
2023/10/16 10:08:52;;;;;;;3.30;1.15;;;;;;;12.38;nan;102443.44;5033953;28;20034;-81
2023/10/16 10:11:38;;;;;;;4.00;1.50;;;;;;;12.35;nan;102447.16;5034542;28;20060;-81
2023/10/16 10:15:07;;;;;;;5.28;0.95;;;;;;;12.44;nan;102451.00;5035303;28;20057;-81
2023/10/16 10:17:03;;;;;;;4.47;0.93;;;;;;;12.55;nan;102442.19;5023773;28;20393;-80
2023/10/16 10:19:36;;;;;;;1.67;0.70;;;;;;;12.62;nan;102437.25;5018172;28;20037;-81
2023/10/16 10:22:18;;;;;;;2.97;0.82;;;;;;;12.61;nan;102433.72;5034569;28;20037;-80
2023/10/16 10:24:51;;;;;;;2.25;0.65;;;;;;;12.67;nan;102438.63;5035249;28;20079;-81
2023/10/16 10:27:17;;;;;;;1.13;0.52;;;;;;;12.68;nan;102440.31;5034962;28;20409;-81
2023/10/16 10:29:48;;;;;;;3.25;0.70;;;;;;;12.75;nan;102437.19;5034167;28;20382;-80
2023/10/16 10:32:14;;;;;;;3.28;0.85;;;;;;;12.77;nan;102437.94;5035045;28;20056;-81
2023/10/16 10:34:40;;;;;;;2.92;0.60;;;;;;;12.86;nan;102435.41;5035296;28;20040;-80
2023/10/16 10:37:46;;;;;;;2.17;0.70;;;;;;;12.74;nan;102436.34;5033920;28;20027;-79
2023/10/16 10:40:21;;;;;;;2.47;0.60;;;;;;;12.62;nan;102431.91;5034272;28;20025;-79
2023/10/16 10:42:49;;;;;;;2.30;0.70;;;;;;;12.66;nan;102433.41;5034827;28;20033;-80
2023/10/16 10:45:17;;;;;;;2.95;1.02;;;;;;;12.60;nan;102436.50;5034403;28;20080;-80
2023/10/16 10:47:43;;;;;;;5.68;1.10;;;;;;;12.64;nan;102433.50;5016841;28;20029;-80
2023/10/16 10:50:13;;;;;;;4.47;0.88;;;;;;;12.70;nan;102435.72;5034000;28;20477;-78
2023/10/16 10:52:39;;;;;;;4.70;1.00;;;;;;;12.89;nan;102439.69;5034114;28;20033;-80
2023/10/16 10:55:18;;;;;;;1.73;0.60;;;;;;;12.87;nan;102431.78;5033957;28;20033;-78
2023/10/16 10:57:47;;;;;;;1.60;0.65;;;;;;;12.94;nan;102424.16;5016785;28;20128;-78
2023/10/16 11:00:43;;;;;;;2.28;0.90;;;;;;;13.08;nan;102431.13;5034543;28;20422;-78
2023/10/16 11:03:09;;;;;;;1.65;0.60;;;;;;;13.21;nan;102429.22;5034331;28;20049;-78
2023/10/16 11:05:40;;;;;;;1.88;0.63;;;;;;;13.18;nan;102420.59;5033763;28;20128;-77
2023/10/16 11:10:41;;;;;;;1.85;0.75;;;;;;;13.28;nan;102408.22;5033550;28;20080;-76
2023/10/16 11:13:10;;;;;;;3.20;0.65;;;;;;;13.37;nan;102417.38;5033783;28;20061;-76
2023/10/16 11:15:36;;;;;;;2.50;0.90;;;;;;;13.40;nan;102423.38;5016117;28;20045;-77
2023/10/16 11:18:12;;;;;;;1.67;0.60;;;;;;;13.33;nan;102408.72;5016189;28;20060;-77
2023/10/16 11:20:38;;;;;;;3.55;1.02;;;;;;;13.39;nan;102400.25;5034051;28;20055;-77
2023/10/16 11:23:13;;;;;;;3.28;0.55;;;;;;;13.47;nan;102406.84;5033891;28;20041;-76
2023/10/16 11:25:44;;;;;;;2.92;0.88;;;;;;;13.53;nan;102409.88;5034570;28;20437;-79
2023/10/16 11:28:17;;;;;;;2.33;0.68;;;;;;;13.61;nan;102405.75;5016022;28;20120;-80
2023/10/16 11:30:44;;;;;;;1.42;0.73;;;;;;;13.58;nan;102402.34;5033538;28;20464;-80
2023/10/16 11:33:12;;;;;;;2.25;0.70;;;;;;;13.55;nan;102394.56;5034107;28;20037;-81
2023/10/16 11:35:42;;;;;;;3.72;1.13;;;;;;;13.53;nan;102393.81;5033393;28;20112;-80
2023/10/16 11:38:13;;;;;;;3.20;1.00;;;;;;;13.42;nan;102384.94;5033468;28;20033;-80
2023/10/16 11:40:39;;;;;;;6.28;1.00;;;;;;;13.32;nan;102390.13;5015543;28;20033;-80
2023/10/16 11:43:11;;;;;;;1.70;0.70;;;;;;;13.27;nan;102382.47;5033100;28;20409;-80
2023/10/16 11:45:42;;;;;;;4.43;0.95;;;;;;;13.19;nan;102383.03;5032941;28;20021;-79
2023/10/16 11:50:58;;;;;;;1.23;0.90;;;;;;;13.08;nan;102371.47;5033275;28;20033;-81
2023/10/16 11:53:23;;;;;;;1.75;0.65;;;;;;;13.16;nan;102372.59;5033613;28;20030;-81
2023/10/16 11:55:51;;;;;;;2.92;1.00;;;;;;;13.13;nan;102372.00;5032989;28;20425;-80
2023/10/16 11:58:17;;;;;;;6.28;1.27;;;;;;;13.17;nan;102373.47;5033299;28;20072;-83
2023/10/16 12:00:57;;;;;;;4.53;1.00;;;;;;;13.16;nan;102359.22;5016273;28;20037;-83
2023/10/16 12:03:26;;;;;;;2.75;0.80;;;;;;;13.28;nan;102359.25;5033523;28;20037;-82
2023/10/16 12:05:53;;;;;;;5.28;0.90;;;;;;;13.37;nan;102356.72;5033179;28;20033;-82
2023/10/16 12:08:21;;;;;;;2.50;0.85;;;;;;;13.37;nan;102354.06;5033502;28;20534;-83
2023/10/16 12:10:48;;;;;;;3.75;1.02;;;;;;;13.55;nan;102351.78;5032549;28;20088;-82
2023/10/16 12:13:13;;;;;;;2.22;0.93;;;;;;;13.63;nan;102352.97;5033388;28;20044;-83
2023/10/16 12:15:43;;;;;;;3.83;1.15;;;;;;;13.63;nan;102350.31;5033052;28;20116;-83
2023/10/16 12:18:09;;;;;;;3.65;0.88;;;;;;;13.74;nan;102345.78;5033229;28;20038;-83
2023/10/16 12:20:37;;;;;;;5.65;1.10;;;;;;;13.72;nan;102338.88;5033004;28;20021;-84
2023/10/16 12:23:04;;;;;;;3.60;1.13;;;;;;;13.65;nan;102333.16;5033138;28;20121;-84
2023/10/16 12:25:29;;;;;;;3.45;0.90;;;;;;;13.75;nan;102336.81;5033118;28;20029;-87
2023/10/16 12:27:55;;;;;;;2.38;0.80;;;;;;;13.71;nan;102337.19;5033163;28;20480;-82
2023/10/16 12:30:20;;;;;;;3.85;0.90;;;;;;;13.71;nan;102335.34;5032571;28;20037;-83
2023/10/16 12:32:46;;;;;;;5.35;1.15;;;;;;;13.89;nan;102333.00;5036707;28;20083;-84
2023/10/16 12:35:18;;;;;;;4.68;0.90;;;;;;;13.92;nan;102334.59;5036943;28;20470;-84
2023/10/16 12:37:44;;;;;;;3.72;0.90;;;;;;;14.02;nan;102326.69;5020907;28;20060;-83
2023/10/16 12:40:27;;;;;;;2.20;1.20;;;;;;;14.25;nan;102328.28;5036762;28;20458;-84
2023/10/16 12:42:55;;;;;;;3.75;1.10;;;;;;;14.46;nan;102322.13;5037319;28;20099;-83
2023/10/16 12:45:25;;;;;;;1.88;0.90;;;;;;;14.68;nan;102318.53;5036863;28;20048;-83
2023/10/16 12:47:51;;;;;;;4.18;1.00;;;;;;;14.93;nan;102321.81;5018752;28;20174;-83
2023/10/16 12:50:23;;;;;;;4.82;1.20;;;;;;;14.78;nan;102316.75;5036442;28;20069;-82
2023/10/16 12:52:55;;;;;;;5.25;0.98;;;;;;;15.23;nan;102320.13;5036375;28;20026;-83
2023/10/16 12:55:22;;;;;;;4.03;1.08;;;;;;;15.27;nan;102316.19;5018922;28;20030;-82
2023/10/16 12:57:49;;;;;;;4.35;1.17;;;;;;;15.33;nan;102318.31;5018461;28;20390;-83
2023/10/16 13:00:19;;;;;;;1.45;0.80;;;;;;;15.34;nan;102311.97;5036247;28;20038;-82
2023/10/16 13:02:46;;;;;;;2.27;0.93;;;;;;;15.37;nan;102318.91;5036457;28;20453;-82
2023/10/16 13:05:18;;;;;;;2.75;1.20;;;;;;;15.35;nan;102313.69;5036382;28;20492;-83
2023/10/16 13:07:44;;;;;;;2.53;0.95;;;;;;;15.48;nan;102317.00;5036328;28;20043;-82
2023/10/16 13:10:15;;;;;;;3.58;1.00;;;;;;;15.66;nan;102313.69;5035843;28;20064;-82
2023/10/16 13:12:44;;;;;;;2.53;1.00;;;;;;;15.83;nan;102313.03;5036000;28;20040;-83
2023/10/16 13:15:15;;;;;;;4.60;0.85;;;;;;;15.57;nan;102306.41;5035863;28;20025;-84
2023/10/16 13:17:42;;;;;;;6.25;0.98;;;;;;;14.92;nan;102312.06;5036708;28;20037;-83
2023/10/16 13:20:17;;;;;;;2.80;1.23;;;;;;;14.41;nan;102311.81;5036606;28;20029;-83
2023/10/16 13:22:52;;;;;;;5.05;1.40;;;;;;;13.77;nan;102320.63;5036293;28;20036;-84
2023/10/16 13:25:22;;;;;;;2.67;1.23;;;;;;;13.32;nan;102318.81;5036561;28;20030;-84
2023/10/16 13:27:51;;;;;;;6.85;1.20;;;;;;;12.95;nan;102319.00;5037943;28;20045;-83
2023/10/16 13:30:17;;;;;;;4.60;1.30;;;;;;;12.73;nan;102327.81;5037446;28;20021;-83
2023/10/16 13:32:46;;;;;;;4.22;1.27;;;;;;;12.55;nan;102329.22;5036708;28;20060;-83
2023/10/16 13:35:12;;;;;;;3.83;1.00;;;;;;;12.44;nan;102327.34;5037275;28;20037;-83
2023/10/16 13:37:43;;;;;;;5.38;1.00;;;;;;;12.21;nan;102323.72;5038171;28;20037;-83